Time;durP1;ratioP1;P1;durP2;ratioP2;P2;SDS_P1;SDS_P2;PMS_P1;PMS_P2;Temp;Humidity;BMP_temperature;BMP_pressure;BME280_temperature;BME280_humidity;BME280_pressure;Samples;Min_cycle;Max_cycle;Signal;HPM_P1;HPM_P2
2022/04/08 00:02:05;;;;;;;5.20;2.30;;;4.50;99.90;;;;;;5038504;28;20038;-79
2022/04/08 00:04:32;;;;;;;8.18;2.17;;;4.40;99.90;;;;;;5043011;28;20049;-79
2022/04/08 00:06:59;;;;;;;11.27;2.40;;;4.50;99.90;;;;;;5050482;28;20037;-79
2022/04/08 00:09:24;;;;;;;8.77;2.30;;;4.40;99.90;;;;;;5039262;28;20100;-79
2022/04/08 00:11:50;;;;;;;10.02;2.35;;;4.40;99.90;;;;;;5038301;28;20491;-79
2022/04/08 00:14:18;;;;;;;13.73;3.00;;;4.40;99.90;;;;;;5033515;28;20120;-79
2022/04/08 00:16:45;;;;;;;8.40;2.42;;;4.50;99.90;;;;;;5026987;28;20042;-78
2022/04/08 00:19:10;;;;;;;7.70;1.88;;;4.40;99.90;;;;;;5042363;28;20510;-79
2022/04/08 00:21:36;;;;;;;8.23;2.30;;;4.40;99.90;;;;;;5037759;28;20037;-79
2022/04/08 00:24:03;;;;;;;12.88;2.63;;;4.50;99.90;;;;;;5044104;28;20038;-79
2022/04/08 00:26:29;;;;;;;10.82;2.30;;;4.40;99.90;;;;;;5036048;28;20380;-78
2022/04/08 00:28:54;;;;;;;8.68;2.15;;;4.40;99.90;;;;;;5032013;28;20033;-78
2022/04/08 00:31:20;;;;;;;9.93;2.22;;;4.40;99.90;;;;;;5036960;28;20274;-78
2022/04/08 00:33:46;;;;;;;9.18;1.90;;;4.30;99.90;;;;;;5031871;28;20128;-79
2022/04/08 00:36:12;;;;;;;7.75;2.13;;;4.30;99.90;;;;;;5039108;28;20043;-79
2022/04/08 00:38:37;;;;;;;11.00;2.33;;;4.30;99.90;;;;;;5048556;28;20036;-79
2022/04/08 00:41:03;;;;;;;10.13;1.75;;;4.30;99.90;;;;;;5041480;28;20045;-78
2022/04/08 00:43:37;;;;;;;8.15;2.22;;;4.30;99.90;;;;;;5031887;28;20187;-79
2022/04/08 00:46:05;;;;;;;15.68;2.33;;;4.30;99.90;;;;;;5030950;28;20369;-79
2022/04/08 00:48:31;;;;;;;5.95;1.88;;;4.30;99.90;;;;;;5031920;28;20042;-79
2022/04/08 00:50:58;;;;;;;10.93;2.22;;;4.40;99.90;;;;;;5031596;28;20487;-78
2022/04/08 00:53:25;;;;;;;9.65;3.08;;;4.30;99.90;;;;;;5030828;28;20127;-78
2022/04/08 00:55:51;;;;;;;13.77;2.88;;;4.30;99.90;;;;;;5032028;28;20136;-79
2022/04/08 00:58:17;;;;;;;10.77;2.88;;;4.40;99.90;;;;;;5029997;28;20045;-79
2022/04/08 01:00:43;;;;;;;12.02;3.60;;;4.30;99.90;;;;;;5030439;28;20463;-79
2022/04/08 01:03:09;;;;;;;7.65;2.60;;;4.30;99.90;;;;;;5030176;28;20072;-79
2022/04/08 01:05:35;;;;;;;9.38;3.60;;;4.30;99.90;;;;;;5031358;28;20475;-80
2022/04/08 01:08:02;;;;;;;10.40;3.83;;;4.30;99.90;;;;;;5013819;28;20073;-79
2022/04/08 01:10:28;;;;;;;14.93;2.70;;;4.20;99.90;;;;;;5001530;28;20036;-80
2022/04/08 01:12:54;;;;;;;8.68;2.78;;;4.20;99.90;;;;;;5036506;28;20465;-80
2022/04/08 01:15:21;;;;;;;13.02;3.95;;;4.10;99.90;;;;;;5040153;28;20060;-80
2022/04/08 01:17:48;;;;;;;5.40;1.27;;;4.20;99.90;;;;;;5037017;28;20037;-80
2022/04/08 01:20:14;;;;;;;5.93;1.30;;;4.00;99.90;;;;;;5042898;28;20047;-81
2022/04/08 01:22:40;;;;;;;7.25;2.03;;;3.90;99.90;;;;;;5035801;28;20511;-80
2022/04/08 01:25:08;;;;;;;3.85;1.08;;;3.80;99.90;;;;;;5040664;28;20414;-81
2022/04/08 01:27:37;;;;;;;3.50;1.40;;;3.80;99.90;;;;;;5043766;28;20041;-80
2022/04/08 01:30:06;;;;;;;2.67;1.00;;;3.70;99.90;;;;;;5033599;28;20032;-81
2022/04/08 01:32:32;;;;;;;4.88;1.10;;;3.60;99.90;;;;;;5044061;28;20048;-80
2022/04/08 01:34:58;;;;;;;3.53;1.25;;;3.50;99.90;;;;;;5030993;28;20029;-80
2022/04/08 01:37:23;;;;;;;3.95;1.15;;;3.50;99.90;;;;;;5012688;28;20045;-80
2022/04/08 01:39:49;;;;;;;4.38;1.42;;;3.50;99.90;;;;;;5029729;28;20045;-80
2022/04/08 01:42:16;;;;;;;4.32;1.33;;;3.50;99.90;;;;;;5035484;28;20045;-80
2022/04/08 01:44:42;;;;;;;3.50;1.20;;;3.50;99.90;;;;;;5035167;28;20099;-79
2022/04/08 01:47:08;;;;;;;3.67;1.00;;;3.40;99.90;;;;;;5042330;28;20040;-79
2022/04/08 01:49:34;;;;;;;1.40;0.80;;;3.40;99.90;;;;;;5020269;28;20052;-80
2022/04/08 01:51:59;;;;;;;4.25;1.30;;;3.40;99.90;;;;;;5035189;28;20627;-80
2022/04/08 01:54:25;;;;;;;5.85;1.20;;;3.40;99.90;;;;;;5037562;28;20128;-80
2022/04/08 01:56:51;;;;;;;5.07;1.23;;;3.20;99.90;;;;;;5037464;28;20045;-80
2022/04/08 01:59:17;;;;;;;4.70;1.45;;;3.10;99.90;;;;;;5043537;28;20068;-79
2022/04/08 02:01:42;;;;;;;6.55;1.60;;;3.10;99.90;;;;;;5042625;28;20040;-80
2022/04/08 02:04:08;;;;;;;7.00;1.35;;;3.00;99.90;;;;;;5024056;28;20048;-79
2022/04/08 02:06:36;;;;;;;5.22;1.50;;;2.90;99.90;;;;;;5044217;28;20457;-79
2022/04/08 02:09:03;;;;;;;2.95;1.40;;;2.90;99.90;;;;;;5037507;28;20115;-79
2022/04/08 02:11:29;;;;;;;7.38;2.17;;;2.90;99.90;;;;;;5042532;28;20046;-79
2022/04/08 02:13:54;;;;;;;4.40;1.38;;;2.80;99.90;;;;;;5039867;28;20052;-79
2022/04/08 02:16:20;;;;;;;6.50;1.55;;;3.00;99.90;;;;;;5048095;28;20119;-79
2022/04/08 02:18:46;;;;;;;4.95;1.40;;;2.80;99.90;;;;;;5046912;28;20398;-79
2022/04/08 02:21:12;;;;;;;4.78;1.98;;;2.80;99.90;;;;;;5043311;28;20037;-79
2022/04/08 02:23:38;;;;;;;9.32;1.70;;;2.70;99.90;;;;;;5046964;28;20041;-79
2022/04/08 02:26:05;;;;;;;7.72;1.52;;;2.70;99.90;;;;;;5047159;28;20051;-79
2022/04/08 02:28:34;;;;;;;5.70;1.48;;;2.60;99.90;;;;;;5029831;28;20396;-78
2022/04/08 02:31:00;;;;;;;3.88;1.40;;;2.60;99.90;;;;;;5038740;28;20511;-79
2022/04/08 02:33:26;;;;;;;7.28;2.05;;;2.50;99.90;;;;;;5033587;28;20068;-79
2022/04/08 02:35:52;;;;;;;5.13;1.42;;;2.50;99.90;;;;;;5030347;28;20120;-78
2022/04/08 02:38:17;;;;;;;11.85;1.80;;;2.40;99.90;;;;;;5030970;28;20068;-79
2022/04/08 02:40:43;;;;;;;12.20;1.80;;;2.40;99.90;;;;;;5046907;28;20037;-79
2022/04/08 02:43:09;;;;;;;3.95;1.50;;;2.30;99.90;;;;;;5045701;28;20095;-79
2022/04/08 02:45:34;;;;;;;10.18;1.88;;;2.30;99.90;;;;;;5043129;28;20038;-78
2022/04/08 02:48:00;;;;;;;11.00;1.85;;;2.20;99.90;;;;;;5049326;28;20472;-79
2022/04/08 02:50:26;;;;;;;8.38;3.00;;;2.20;99.90;;;;;;5043603;28;20064;-79
2022/04/08 02:52:52;;;;;;;5.85;2.10;;;2.20;99.90;;;;;;5040835;28;20046;-78
2022/04/08 02:55:18;;;;;;;5.85;1.75;;;2.20;99.90;;;;;;5044935;28;20573;-79
2022/04/08 02:57:47;;;;;;;5.65;1.67;;;2.10;99.90;;;;;;5027559;28;20135;-79
2022/04/08 03:00:18;;;;;;;6.72;1.70;;;2.10;99.90;;;;;;5024832;28;20033;-79
2022/04/08 03:02:45;;;;;;;7.90;1.77;;;2.10;99.90;;;;;;5040861;28;20124;-78
2022/04/08 03:05:11;;;;;;;9.80;2.03;;;2.10;99.90;;;;;;5041671;28;20094;-79
2022/04/08 03:07:37;;;;;;;8.40;1.92;;;2.60;99.90;;;;;;5042645;28;20087;-79
2022/04/08 03:10:05;;;;;;;13.40;2.35;;;2.30;99.90;;;;;;5036831;28;20636;-79
2022/04/08 03:12:31;;;;;;;10.75;1.90;;;2.30;99.90;;;;;;5045325;28;20490;-79
2022/04/08 03:14:58;;;;;;;6.32;1.70;;;2.40;99.90;;;;;;5046028;28;20119;-79
2022/04/08 03:17:24;;;;;;;8.93;1.80;;;2.50;99.90;;;;;;5044415;28;20037;-79
2022/04/08 03:19:49;;;;;;;9.30;2.05;;;2.50;99.90;;;;;;5045809;28;20098;-79
2022/04/08 03:22:19;;;;;;;11.18;2.33;;;2.50;99.90;;;;;;5028718;28;20412;-79
2022/04/08 03:24:45;;;;;;;6.47;2.10;;;2.50;99.90;;;;;;5031388;28;20128;-79
2022/04/08 03:27:11;;;;;;;7.68;2.47;;;2.60;99.90;;;;;;5047269;28;20056;-79
2022/04/08 03:29:37;;;;;;;8.82;2.30;;;2.50;99.90;;;;;;5041079;28;20554;-79
2022/04/08 03:32:03;;;;;;;7.53;2.30;;;2.60;99.90;;;;;;5041909;28;20426;-79
2022/04/08 03:34:29;;;;;;;5.20;1.77;;;2.40;99.90;;;;;;5039000;28;20510;-79
2022/04/08 03:36:54;;;;;;;11.60;3.75;;;2.40;99.90;;;;;;5040030;28;20045;-79
2022/04/08 03:39:20;;;;;;;7.63;1.95;;;2.40;99.90;;;;;;5043600;28;20052;-79
2022/04/08 03:41:46;;;;;;;10.07;2.47;;;2.40;99.90;;;;;;5044121;28;20139;-79
2022/04/08 03:44:12;;;;;;;10.05;2.25;;;2.50;99.90;;;;;;5022426;28;20044;-79
2022/04/08 03:46:37;;;;;;;6.80;2.00;;;2.50;99.90;;;;;;5041543;28;20040;-79
2022/04/08 03:49:11;;;;;;;16.05;3.50;;;2.50;99.90;;;;;;5039302;28;20051;-79
2022/04/08 03:51:36;;;;;;;11.43;2.70;;;2.50;99.90;;;;;;5029236;28;20124;-79
2022/04/08 03:54:02;;;;;;;13.98;3.20;;;2.50;99.90;;;;;;5040457;28;20493;-79
2022/04/08 03:56:28;;;;;;;6.45;2.20;;;2.50;99.90;;;;;;5037520;28;20040;-79
2022/04/08 03:58:54;;;;;;;7.38;2.45;;;2.50;99.90;;;;;;5047078;28;20140;-79
2022/04/08 04:01:19;;;;;;;7.32;2.17;;;2.40;99.90;;;;;;5043129;28;20046;-79
2022/04/08 04:03:45;;;;;;;8.45;1.90;;;2.60;99.90;;;;;;5047073;28;20071;-79
2022/04/08 04:06:11;;;;;;;12.43;2.30;;;2.40;99.90;;;;;;5041240;28;20040;-79
2022/04/08 04:08:37;;;;;;;10.57;2.40;;;2.40;99.90;;;;;;5069795;28;20451;-79
2022/04/08 04:11:03;;;;;;;7.28;1.90;;;2.40;99.90;;;;;;5041903;28;20087;-79
2022/04/08 04:13:28;;;;;;;3.20;1.70;;;2.40;99.90;;;;;;5030065;28;20041;-79
2022/04/08 04:15:54;;;;;;;7.43;1.80;;;2.50;99.90;;;;;;5048953;28;20106;-79
2022/04/08 04:18:20;;;;;;;12.35;2.33;;;2.50;99.90;;;;;;5045819;28;20540;-79
2022/04/08 04:20:45;;;;;;;4.47;1.80;;;2.50;99.90;;;;;;5048463;28;20049;-79
2022/04/08 04:23:11;;;;;;;4.40;1.80;;;2.50;99.90;;;;;;5047948;28;20102;-78
2022/04/08 04:25:37;;;;;;;3.90;1.50;;;2.50;99.90;;;;;;5048880;28;20065;-79
2022/04/08 04:28:04;;;;;;;5.82;1.73;;;2.50;99.90;;;;;;5046848;28;20079;-78
2022/04/08 04:30:30;;;;;;;9.15;2.05;;;2.40;99.90;;;;;;5045905;28;20056;-80
2022/04/08 04:32:56;;;;;;;5.53;2.17;;;2.40;99.90;;;;;;5043699;28;20044;-79
2022/04/08 04:35:23;;;;;;;7.78;1.80;;;2.40;99.90;;;;;;5045389;28;20045;-79
2022/04/08 04:37:48;;;;;;;8.40;2.45;;;2.40;99.90;;;;;;5033235;28;20044;-80
2022/04/08 04:40:14;;;;;;;9.63;1.90;;;2.40;99.90;;;;;;5046189;28;20045;-80
2022/04/08 04:42:40;;;;;;;5.22;2.10;;;2.30;99.90;;;;;;5048001;28;20033;-80
2022/04/08 04:45:06;;;;;;;5.88;1.80;;;2.40;99.90;;;;;;5047914;28;20560;-79
2022/04/08 04:47:32;;;;;;;8.82;2.15;;;2.80;99.90;;;;;;5046028;28;20431;-80
2022/04/08 04:49:58;;;;;;;9.65;1.92;;;2.40;99.90;;;;;;5048057;28;20115;-79
2022/04/08 04:52:23;;;;;;;6.38;2.08;;;2.40;99.90;;;;;;5048646;28;20042;-79
2022/04/08 04:54:49;;;;;;;8.13;2.03;;;2.30;99.90;;;;;;5022251;28;20049;-79
2022/04/08 04:57:15;;;;;;;4.93;1.80;;;2.30;99.90;;;;;;5033794;28;20044;-80
2022/04/08 04:59:41;;;;;;;9.77;1.77;;;2.20;99.90;;;;;;5050039;28;20047;-79
2022/04/08 05:02:07;;;;;;;6.30;1.80;;;2.50;99.90;;;;;;5048771;28;20651;-80
2022/04/08 05:04:32;;;;;;;5.95;1.92;;;2.10;99.90;;;;;;5069573;28;20183;-79
2022/04/08 05:06:58;;;;;;;7.88;2.20;;;2.10;99.90;;;;;;5050065;28;20506;-79
2022/04/08 05:09:24;;;;;;;4.95;2.22;;;2.00;99.90;;;;;;5041815;28;20435;-79
2022/04/08 05:11:49;;;;;;;7.78;2.08;;;2.00;99.90;;;;;;5047320;28;20591;-80
2022/04/08 05:14:15;;;;;;;6.82;2.20;;;2.10;99.90;;;;;;5038942;28;20136;-80
2022/04/08 05:16:41;;;;;;;3.15;1.98;;;1.90;99.90;;;;;;5048512;28;20048;-79
2022/04/08 05:19:07;;;;;;;6.93;1.92;;;2.40;99.90;;;;;;5030285;28;20098;-80
2022/04/08 05:21:34;;;;;;;5.80;2.05;;;2.00;99.90;;;;;;5048379;28;20037;-80
2022/04/08 05:23:59;;;;;;;4.45;1.90;;;2.00;99.90;;;;;;5045798;28;20047;-80
2022/04/08 05:26:25;;;;;;;10.50;2.17;;;2.00;99.90;;;;;;5049210;28;20124;-80
2022/04/08 05:28:51;;;;;;;6.63;2.42;;;2.00;99.90;;;;;;5049880;28;20068;-80
2022/04/08 05:31:16;;;;;;;6.78;2.10;;;1.90;99.90;;;;;;5042721;28;20513;-80
2022/04/08 05:33:42;;;;;;;6.85;2.38;;;2.00;99.90;;;;;;5048787;28;20095;-80
2022/04/08 05:36:08;;;;;;;10.98;2.33;;;2.10;99.90;;;;;;5043924;28;20048;-80
2022/04/08 05:38:34;;;;;;;8.52;2.80;;;2.10;99.90;;;;;;5046454;28;20047;-80
2022/04/08 05:40:59;;;;;;;8.98;2.47;;;2.00;99.90;;;;;;5046649;28;20119;-80
2022/04/08 05:43:25;;;;;;;7.90;2.80;;;2.10;99.90;;;;;;5047504;28;20028;-79
2022/04/08 05:45:52;;;;;;;8.88;2.42;;;2.20;99.90;;;;;;5047261;28;20447;-80
2022/04/08 05:48:18;;;;;;;9.77;2.65;;;2.30;99.90;;;;;;5066178;28;20114;-80
2022/04/08 05:50:43;;;;;;;8.20;2.38;;;2.40;99.90;;;;;;5048756;28;20134;-80
2022/04/08 05:53:09;;;;;;;8.65;2.30;;;2.50;99.90;;;;;;5044329;28;20075;-80
2022/04/08 05:55:35;;;;;;;6.43;2.17;;;2.60;99.90;;;;;;5047973;28;20133;-80
2022/04/08 05:58:00;;;;;;;11.25;3.20;;;2.60;99.90;;;;;;5047433;28;20644;-80
2022/04/08 06:00:26;;;;;;;7.40;2.53;;;2.70;99.90;;;;;;5049376;28;20048;-80
2022/04/08 06:02:55;;;;;;;5.10;2.38;;;2.70;99.90;;;;;;5046398;28;20033;-80
2022/04/08 06:05:21;;;;;;;10.13;3.22;;;2.70;99.90;;;;;;5046708;28;20562;-80
2022/04/08 06:07:53;;;;;;;4.72;2.53;;;2.80;99.90;;;;;;5045789;28;20073;-80
2022/04/08 06:10:22;;;;;;;6.03;1.90;;;2.80;99.90;;;;;;5049550;28;20418;-79
2022/04/08 06:12:52;;;;;;;7.57;2.65;;;2.90;99.90;;;;;;5046240;28;20048;-79
2022/04/08 06:15:18;;;;;;;4.68;2.42;;;2.80;99.90;;;;;;5046362;28;20045;-79
2022/04/08 06:17:44;;;;;;;7.72;2.03;;;2.80;99.90;;;;;;5045272;28;20126;-80
2022/04/08 06:20:13;;;;;;;7.32;2.22;;;2.80;99.90;;;;;;5045549;28;20445;-80
2022/04/08 06:22:39;;;;;;;3.72;1.95;;;2.80;99.90;;;;;;5046900;28;20108;-80
2022/04/08 06:25:09;;;;;;;4.90;1.92;;;2.90;99.90;;;;;;5046921;28;20064;-80
2022/04/08 06:27:35;;;;;;;1.90;1.52;;;2.90;99.90;;;;;;5037943;28;20057;-80
2022/04/08 06:30:01;;;;;;;4.53;2.05;;;3.30;99.90;;;;;;5032662;28;20433;-80
2022/04/08 06:32:27;;;;;;;3.17;1.77;;;3.00;99.90;;;;;;5031417;28;20189;-81
2022/04/08 06:34:53;;;;;;;7.10;2.55;;;3.60;99.90;;;;;;5047089;28;20140;-80
2022/04/08 06:37:18;;;;;;;3.55;1.83;;;3.00;99.90;;;;;;5030526;28;20071;-80
2022/04/08 06:39:45;;;;;;;3.85;1.80;;;2.90;99.90;;;;;;5034666;28;20037;-80
2022/04/08 06:42:11;;;;;;;3.75;1.90;;;2.80;99.90;;;;;;5046866;28;20506;-80
2022/04/08 06:44:37;;;;;;;5.35;2.00;;;2.80;99.90;;;;;;5037917;28;20056;-80
2022/04/08 06:47:03;;;;;;;2.10;1.90;;;2.70;99.90;;;;;;5025496;28;20180;-80
2022/04/08 06:49:28;;;;;;;2.75;2.10;;;2.70;99.90;;;;;;5018391;28;20350;-80
2022/04/08 06:51:58;;;;;;;4.40;2.00;;;2.70;99.90;;;;;;5030261;28;20094;-80
2022/04/08 06:54:25;;;;;;;4.57;1.80;;;2.70;99.90;;;;;;5023885;28;20065;-80
2022/04/08 06:56:51;;;;;;;3.90;1.70;;;2.80;99.90;;;;;;5021528;28;20050;-81
2022/04/08 06:59:17;;;;;;;2.17;1.50;;;2.80;99.90;;;;;;5029839;28;20033;-80
2022/04/08 07:01:43;;;;;;;4.78;1.67;;;3.10;99.90;;;;;;5012416;28;20102;-80
2022/04/08 07:04:09;;;;;;;5.20;1.58;;;2.80;99.90;;;;;;5014352;28;20113;-81
2022/04/08 07:06:35;;;;;;;1.90;1.50;;;2.90;99.90;;;;;;5029977;28;20041;-80
2022/04/08 07:09:00;;;;;;;4.15;1.85;;;2.90;99.90;;;;;;5029960;28;20033;-81
2022/04/08 07:11:26;;;;;;;1.70;1.50;;;3.20;99.90;;;;;;5028682;28;20045;-80
2022/04/08 07:13:52;;;;;;;2.05;1.52;;;3.00;99.90;;;;;;5028546;28;20046;-81
2022/04/08 07:16:18;;;;;;;2.80;1.70;;;3.10;99.90;;;;;;5028601;28;20052;-81
2022/04/08 07:18:43;;;;;;;3.47;1.60;;;3.10;99.90;;;;;;5002079;28;20038;-81
2022/04/08 07:21:09;;;;;;;4.43;1.90;;;3.10;99.90;;;;;;5026664;28;20534;-81
2022/04/08 07:23:36;;;;;;;4.07;1.75;;;3.20;99.90;;;;;;5029972;28;20080;-81
2022/04/08 07:26:03;;;;;;;3.28;1.80;;;3.20;99.90;;;;;;5028506;28;20037;-81
2022/04/08 07:28:29;;;;;;;4.00;1.70;;;3.30;99.90;;;;;;5028355;28;20072;-81
2022/04/08 07:30:55;;;;;;;5.75;1.70;;;3.70;99.90;;;;;;5028302;28;20095;-81
2022/04/08 07:33:20;;;;;;;3.30;1.80;;;4.20;99.90;;;;;;5025729;28;20609;-81
2022/04/08 07:35:46;;;;;;;2.90;1.45;;;4.70;99.90;;;;;;5032332;28;20116;-81
2022/04/08 07:38:13;;;;;;;2.15;1.30;;;5.10;99.90;;;;;;5033491;28;20041;-80
2022/04/08 07:40:38;;;;;;;2.50;1.30;;;5.40;99.90;;;;;;5033735;28;20386;-81
2022/04/08 07:43:04;;;;;;;2.85;1.40;;;5.70;99.90;;;;;;5033791;28;20049;-81
2022/04/08 07:45:30;;;;;;;1.92;1.50;;;6.00;99.90;;;;;;5032009;28;20087;-82
2022/04/08 07:47:58;;;;;;;3.80;1.20;;;6.20;99.90;;;;;;5033822;28;20041;-82
2022/04/08 07:50:25;;;;;;;7.15;1.50;;;6.40;99.90;;;;;;5031959;28;20049;-82
2022/04/08 07:52:51;;;;;;;3.17;1.48;;;6.50;99.90;;;;;;5033548;28;20038;-81
2022/04/08 07:55:20;;;;;;;2.13;1.20;;;6.60;99.90;;;;;;5033172;28;20438;-81
2022/04/08 07:57:52;;;;;;;4.22;1.45;;;6.50;99.90;;;;;;5002522;28;20104;-81
2022/04/08 08:00:28;;;;;;;2.42;1.40;;;6.60;99.90;;;;;;5033086;28;20045;-81
2022/04/08 08:02:54;;;;;;;3.40;1.58;;;6.40;99.90;;;;;;5033612;28;20042;-81
2022/04/08 08:05:21;;;;;;;4.60;2.08;;;6.70;99.90;;;;;;5033240;28;20098;-81
2022/04/08 08:07:50;;;;;;;3.92;1.75;;;7.00;99.90;;;;;;5015208;28;20048;-81
2022/04/08 08:10:20;;;;;;;5.13;1.52;;;7.30;99.90;;;;;;5033068;28;20407;-82
2022/04/08 08:12:47;;;;;;;5.47;2.15;;;7.00;99.90;;;;;;5033023;28;20041;-81
2022/04/08 08:15:12;;;;;;;6.50;1.85;;;6.60;99.90;;;;;;5032952;28;20081;-82
2022/04/08 08:17:39;;;;;;;5.78;2.00;;;6.00;99.90;;;;;;5033043;28;20091;-81
2022/04/08 08:20:06;;;;;;;9.32;1.90;;;5.40;99.90;;;;;;5025228;28;20042;-81
2022/04/08 08:22:33;;;;;;;9.73;2.28;;;5.00;99.90;;;;;;5029928;28;20076;-81
2022/04/08 08:24:58;;;;;;;7.03;2.40;;;4.80;99.90;;;;;;5031191;28;20048;-80
2022/04/08 08:27:24;;;;;;;3.50;2.20;;;4.90;99.90;;;;;;5031661;28;20042;-81
2022/04/08 08:29:50;;;;;;;9.73;2.53;;;5.50;99.90;;;;;;5030147;28;20033;-80
2022/04/08 08:32:16;;;;;;;3.72;1.95;;;6.20;99.90;;;;;;5032373;28;20041;-81
2022/04/08 08:34:42;;;;;;;9.75;2.45;;;6.70;99.90;;;;;;5018378;28;20053;-81
2022/04/08 08:37:08;;;;;;;2.30;1.70;;;6.90;99.90;;;;;;5032279;28;20450;-81
2022/04/08 08:39:34;;;;;;;4.93;1.80;;;6.90;99.90;;;;;;5033020;28;20041;-81
2022/04/08 08:42:00;;;;;;;4.50;1.75;;;7.00;99.90;;;;;;5014640;28;20037;-82
2022/04/08 08:44:26;;;;;;;4.68;1.92;;;7.30;99.90;;;;;;5031395;28;20046;-82
2022/04/08 08:46:57;;;;;;;4.32;1.98;;;7.80;99.90;;;;;;5030692;28;20061;-82
2022/04/08 08:49:29;;;;;;;5.03;2.03;;;8.10;99.90;;;;;;5032814;28;20041;-82
2022/04/08 08:51:58;;;;;;;5.03;2.10;;;8.00;99.90;;;;;;5030910;28;20107;-82
2022/04/08 08:54:25;;;;;;;3.85;2.40;;;8.00;99.90;;;;;;5031184;28;20046;-82
2022/04/08 08:56:50;;;;;;;3.88;2.10;;;8.00;99.90;;;;;;5014406;28;20049;-81
2022/04/08 08:59:16;;;;;;;5.80;2.28;;;8.10;99.90;;;;;;5032008;28;20038;-82
2022/04/08 09:01:42;;;;;;;5.32;2.10;;;8.20;99.90;;;;;;5019395;28;20049;-81
2022/04/08 09:04:08;;;;;;;4.88;2.85;;;8.20;99.90;;;;;;5057564;28;20047;-81
2022/04/08 09:06:42;;;;;;;4.45;2.58;;;8.10;99.90;;;;;;5011245;28;20121;-82
2022/04/08 09:09:11;;;;;;;5.03;2.40;;;8.40;99.90;;;;;;5061000;28;20322;-81
2022/04/08 09:11:37;;;;;;;3.97;1.98;;;8.20;99.90;;;;;;5032124;28;20399;-81
2022/04/08 09:14:05;;;;;;;3.92;2.30;;;8.20;99.90;;;;;;5030488;28;20415;-81
2022/04/08 09:16:39;;;;;;;4.90;2.20;;;8.60;99.90;;;;;;5031510;28;20049;-81
2022/04/08 09:19:12;;;;;;;6.57;2.40;;;9.00;99.90;;;;;;5030253;28;20038;-81
2022/04/08 09:21:38;;;;;;;4.28;2.00;;;9.10;99.90;;;;;;5013698;28;20129;-81
2022/04/08 09:24:06;;;;;;;8.05;2.42;;;9.10;99.90;;;;;;5030205;28;20054;-81
2022/04/08 09:26:36;;;;;;;3.70;1.95;;;9.40;99.90;;;;;;5030181;28;20038;-81
2022/04/08 09:29:06;;;;;;;5.80;2.13;;;9.30;99.90;;;;;;5030562;28;20025;-81
2022/04/08 09:31:32;;;;;;;4.00;2.25;;;9.50;99.90;;;;;;5030586;28;20052;-81
2022/04/08 09:33:57;;;;;;;5.97;2.10;;;9.80;99.90;;;;;;5026220;28;20060;-80
2022/04/08 09:36:31;;;;;;;5.15;2.20;;;9.60;99.90;;;;;;5027389;28;20041;-81
2022/04/08 09:38:57;;;;;;;5.28;1.88;;;9.60;99.90;;;;;;5009609;28;20041;-80
2022/04/08 09:41:40;;;;;;;4.63;2.05;;;9.00;99.90;;;;;;5027080;28;20096;-80
2022/04/08 09:44:11;;;;;;;6.57;2.20;;;8.20;99.90;;;;;;5028677;28;20316;-80
2022/04/08 09:46:37;;;;;;;2.50;1.90;;;8.70;99.90;;;;;;5028414;28;20038;-81
2022/04/08 09:49:04;;;;;;;8.05;2.50;;;9.40;99.90;;;;;;5004061;28;20108;-81
2022/04/08 09:51:37;;;;;;;6.38;2.33;;;9.70;99.90;;;;;;5027480;28;20048;-81
2022/04/08 09:54:09;;;;;;;10.23;2.60;;;10.00;99.90;;;;;;5020872;28;20380;-80
2022/04/08 09:56:37;;;;;;;4.72;2.95;;;10.00;99.90;;;;;;5042502;28;20124;-81
2022/04/08 09:59:05;;;;;;;9.50;3.33;;;10.00;99.90;;;;;;4993974;28;20037;-81
2022/04/08 10:01:31;;;;;;;6.18;2.72;;;9.70;99.90;;;;;;5026365;28;20057;-81
2022/04/08 10:03:58;;;;;;;5.00;2.38;;;9.40;99.90;;;;;;5027003;28;20053;-81
2022/04/08 10:06:24;;;;;;;9.50;2.90;;;8.80;99.90;;;;;;5009861;28;20137;-81
2022/04/08 10:08:50;;;;;;;7.28;2.78;;;8.40;99.90;;;;;;5025739;28;20045;-80
2022/04/08 10:11:52;;;;;;;10.77;2.90;;;8.00;99.90;;;;;;5025338;28;20335;-81
2022/04/08 10:14:36;;;;;;;9.40;2.92;;;7.80;99.90;;;;;;5027832;28;20045;-81
2022/04/08 10:17:03;;;;;;;9.15;2.80;;;7.60;99.90;;;;;;5009970;28;20324;-81
2022/04/08 10:19:30;;;;;;;6.38;2.92;;;7.40;99.90;;;;;;5026504;28;20063;-80
2022/04/08 10:21:56;;;;;;;12.80;3.50;;;7.30;99.90;;;;;;5027987;28;20048;-80
2022/04/08 10:24:26;;;;;;;7.63;2.45;;;7.30;99.90;;;;;;5010024;28;20041;-81
2022/04/08 10:27:11;;;;;;;17.63;3.47;;;7.50;99.90;;;;;;5027992;28;20045;-80
2022/04/08 10:29:37;;;;;;;6.43;3.10;;;7.80;99.90;;;;;;5025852;28;20328;-81
2022/04/08 10:32:12;;;;;;;9.55;2.97;;;7.90;99.90;;;;;;5026121;28;20080;-81
2022/04/08 10:34:38;;;;;;;5.15;2.58;;;8.10;99.90;;;;;;5009802;28;20168;-81
2022/04/08 10:37:15;;;;;;;8.93;3.05;;;8.20;99.90;;;;;;5042079;28;20523;-80
2022/04/08 10:39:42;;;;;;;8.32;2.47;;;8.30;99.90;;;;;;5025933;28;20682;-80
2022/04/08 10:42:22;;;;;;;6.80;2.53;;;8.40;99.90;;;;;;5024621;28;20132;-80
2022/04/08 10:44:49;;;;;;;6.68;2.38;;;8.50;99.90;;;;;;5026156;28;20049;-80
2022/04/08 10:47:24;;;;;;;7.70;2.60;;;8.80;99.90;;;;;;4992667;28;20052;-80
2022/04/08 10:50:04;;;;;;;12.13;3.40;;;9.00;99.90;;;;;;5027488;28;20815;-80
2022/04/08 10:52:38;;;;;;;5.50;2.65;;;9.00;99.90;;;;;;5058604;28;20588;-80
2022/04/08 10:55:13;;;;;;;5.60;2.85;;;8.70;99.90;;;;;;5008797;28;20435;-80
2022/04/08 10:57:41;;;;;;;6.88;2.35;;;8.60;99.90;;;;;;5026629;28;20103;-80
2022/04/08 11:00:18;;;;;;;8.43;3.47;;;8.30;99.90;;;;;;5026164;28;20065;-80
2022/04/08 11:02:48;;;;;;;8.02;2.58;;;8.10;99.90;;;;;;5020845;28;20038;-80
2022/04/08 11:05:18;;;;;;;7.60;2.40;;;7.90;99.90;;;;;;5038508;28;20561;-81
2022/04/08 11:07:48;;;;;;;5.85;2.45;;;7.70;99.90;;;;;;5039157;28;20505;-80
2022/04/08 11:10:22;;;;;;;8.13;2.88;;;7.80;99.90;;;;;;5023123;28;20048;-80
2022/04/08 11:12:52;;;;;;;7.13;2.28;;;7.70;99.90;;;;;;5025599;28;20545;-80
2022/04/08 11:15:20;;;;;;;6.18;2.47;;;7.60;99.90;;;;;;5025149;28;20128;-80
2022/04/08 11:17:47;;;;;;;8.40;2.50;;;7.20;99.90;;;;;;5021566;28;20034;-80
2022/04/08 11:20:20;;;;;;;6.13;2.72;;;6.90;99.90;;;;;;5025605;28;20038;-80
2022/04/08 11:22:52;;;;;;;7.53;3.88;;;6.60;99.90;;;;;;5025752;28;20038;-79
2022/04/08 11:25:30;;;;;;;7.03;2.70;;;6.20;99.90;;;;;;5026164;28;20037;-78
2022/04/08 11:28:07;;;;;;;15.30;3.08;;;6.00;99.90;;;;;;5025600;28;20033;-78
2022/04/08 11:30:40;;;;;;;11.20;3.35;;;5.80;99.90;;;;;;5025254;28;20068;-79
2022/04/08 11:33:16;;;;;;;8.07;3.75;;;5.70;99.90;;;;;;5021918;28;20077;-79
2022/04/08 11:35:43;;;;;;;7.25;3.40;;;5.60;99.90;;;;;;5025128;28;20127;-79
2022/04/08 11:38:20;;;;;;;7.30;3.85;;;6.10;99.90;;;;;;5012894;28;20046;-80
2022/04/08 11:40:46;;;;;;;7.78;3.53;;;5.60;99.90;;;;;;5023550;28;20041;-79
2022/04/08 11:43:16;;;;;;;12.00;4.05;;;5.70;99.90;;;;;;5025433;28;20091;-79
2022/04/08 11:45:43;;;;;;;11.20;3.50;;;5.70;99.90;;;;;;5021920;28;20128;-79
2022/04/08 11:48:20;;;;;;;7.00;2.72;;;5.80;99.90;;;;;;5025162;28;20518;-78
2022/04/08 11:50:47;;;;;;;5.32;2.70;;;5.70;99.90;;;;;;5021666;28;20183;-79
2022/04/08 11:53:23;;;;;;;11.52;3.20;;;5.80;99.90;;;;;;5024989;28;20037;-79
2022/04/08 11:55:57;;;;;;;7.72;2.92;;;5.80;99.90;;;;;;4987263;28;1128776;-79
2022/04/08 11:58:24;;;;;;;8.18;3.05;;;6.00;99.90;;;;;;5026698;28;20050;-79
2022/04/08 12:00:51;;;;;;;7.20;3.20;;;6.20;99.90;;;;;;5026405;28;20045;-79
2022/04/08 12:03:27;;;;;;;6.85;3.10;;;6.50;99.90;;;;;;5025854;28;20049;-79
2022/04/08 12:05:53;;;;;;;9.55;3.08;;;6.80;99.90;;;;;;5023748;28;20560;-80
2022/04/08 12:08:19;;;;;;;9.70;3.00;;;7.10;99.90;;;;;;5020818;28;20048;-80
2022/04/08 12:10:50;;;;;;;9.15;2.67;;;7.30;99.90;;;;;;5022495;28;20045;-79
2022/04/08 12:13:25;;;;;;;10.82;3.15;;;7.50;99.90;;;;;;5019194;28;20053;-80
2022/04/08 12:15:55;;;;;;;11.77;3.42;;;7.80;99.90;;;;;;5025649;28;20047;-80
2022/04/08 12:18:29;;;;;;;5.75;2.63;;;8.10;99.90;;;;;;5025488;28;20398;-80
2022/04/08 12:20:57;;;;;;;9.50;3.63;;;8.20;99.90;;;;;;5028115;28;20110;-80
2022/04/08 12:23:24;;;;;;;6.45;2.58;;;8.40;99.90;;;;;;5011492;28;20037;-80
2022/04/08 12:25:52;;;;;;;10.63;3.40;;;8.60;99.90;;;;;;5011014;28;20053;-80
2022/04/08 12:28:18;;;;;;;9.32;2.63;;;9.00;99.90;;;;;;5026179;28;20095;-80
2022/04/08 12:30:44;;;;;;;7.28;2.20;;;9.10;99.90;;;;;;5027879;28;20108;-80
2022/04/08 12:33:10;;;;;;;4.72;2.13;;;9.20;99.90;;;;;;5029404;28;20049;-80
2022/04/08 12:35:35;;;;;;;7.82;2.70;;;9.20;99.90;;;;;;5027659;28;20482;-80
2022/04/08 12:38:04;;;;;;;4.50;2.60;;;9.30;99.90;;;;;;5062072;28;20045;-79
2022/04/08 12:40:31;;;;;;;9.73;2.67;;;9.30;99.90;;;;;;5025819;28;20399;-80
2022/04/08 12:42:57;;;;;;;7.85;2.28;;;9.20;99.90;;;;;;5028726;28;20064;-81
2022/04/08 12:45:23;;;;;;;6.82;2.00;;;9.00;99.90;;;;;;5025057;28;20128;-80
2022/04/08 12:47:49;;;;;;;5.35;2.10;;;9.10;99.90;;;;;;5028245;28;20033;-80
2022/04/08 12:50:14;;;;;;;6.22;1.83;;;9.30;99.90;;;;;;4995450;28;20119;-80
2022/04/08 12:52:41;;;;;;;3.63;1.55;;;9.30;99.90;;;;;;5011805;28;20051;-80
2022/04/08 12:55:08;;;;;;;7.55;2.10;;;9.50;99.90;;;;;;5014464;28;20089;-80
2022/04/08 12:57:34;;;;;;;3.88;1.73;;;9.60;99.90;;;;;;5029557;28;20042;-81